Temp: 17.4°C   Baro: 1015.4mb
  Wind: 13.0mph   Dir: NNW (336°)
  Rain: 9.6mm (0.0mm/hr)
  Solar: 712W/m2  Hum: 66%
 
Bath Spa Weather Historical Data
Daily Summary for June 13, 2019 Units:  English    Metric   Both
Next Day »
Daily Weekly Monthly Yearly Custom
  High: Low: Average:
Temperature: 56.8 °F 50 °F 52.9 °F
Dew Point: 54 °F 48 °F 50.2 °F
Humidity: 94% 86% 91%
Wind Speed: 15mph 0mph 4mph
Wind Gust: 21mph - -
Wind direction- - WSW
Pressure: 29.7 in 29.6 in -
Precipitation: 0.32 in    
Historical Graphs
 
 
Tabular Data for June 13, 2019
Time Temperature Dew Point Pressure Wind direction Wind Speed Wind Gust Humidity Rainfall Rate (Hourly) solar
00:04 51.3 °F 49.3 °F 29.7 in Calm   2 mph 93% 0.04 in 0.00 W/m2
00:09 51.3 °F 49.3 °F 29.7 in Calm   5 mph 93% 0.04 in 0.00 W/m2
00:14 51.3 °F 49.3 °F 29.7 in WNW 0.9 mph 1 mph 93% 0.04 in 0.00 W/m2
00:19 51.3 °F 49.3 °F 29.7 in WNW 0.9 mph 4 mph 93% 0.04 in 0.00 W/m2
00:24 51.3 °F 49.3 °F 29.7 in Calm   3 mph 93% 0.04 in 0.00 W/m2
00:29 51.1 °F 49.1 °F 29.7 in WNW 4 mph 5 mph 93% 0.04 in 0.00 W/m2
00:34 51.1 °F 49.1 °F 29.7 in WNW 2 mph 5 mph 93% 0.04 in 0.00 W/m2
00:39 50.9 °F 48.9 °F 29.7 in Calm   3 mph 93% 0.04 in 0.00 W/m2
00:44 50.9 °F 48.9 °F 29.7 in West 2.9 mph 7 mph 93% 0.04 in 0.00 W/m2
00:49 50.9 °F 48.9 °F 29.7 in West 0.9 mph 7 mph 93% 0.04 in 0.00 W/m2
00:54 50.9 °F 48.9 °F 29.7 in Calm   8 mph 93% 0.03 in 0.00 W/m2
00:59 50.9 °F 48.9 °F 29.7 in WSW 2 mph 6 mph 93% 0.03 in 0.00 W/m2
01:04 50.7 °F 48.7 °F 29.7 in WSW 4 mph 5 mph 93% 0.03 in 0.00 W/m2
01:09 50.7 °F 48.7 °F 29.7 in WSW 2 mph 4 mph 93% 0.02 in 0.00 W/m2
01:14 50.7 °F 48.7 °F 29.7 in WSW 0.9 mph 3 mph 93% 0.02 in 0.00 W/m2
01:19 50.5 °F 48.6 °F 29.7 in WSW 4.9 mph 5 mph 93% 0.03 in 0.00 W/m2
01:24 50.7 °F 48.7 °F 29.7 in Calm     93% 0.03 in 0.00 W/m2
01:29 50.5 °F 48.6 °F 29.7 in WSW 4 mph 5 mph 93% 0.03 in 0.00 W/m2
01:34 50.5 °F 48.6 °F 29.7 in Calm   5 mph 93% 0.04 in 0.00 W/m2
01:39 50.5 °F 48.6 °F 29.7 in WSW 0.9 mph 5 mph 93% 0.03 in 0.00 W/m2
01:44 50.5 °F 48.6 °F 29.7 in WSW 2 mph 3 mph 93% 0.03 in 0.00 W/m2
01:49 50.4 °F 48.4 °F 29.7 in WSW 2 mph 6 mph 93% 0.04 in 0.00 W/m2
01:54 50.4 °F 48.4 °F 29.7 in WSW 2.9 mph 6 mph 93% 0.03 in 0.00 W/m2
01:59 50.4 °F 48.4 °F 29.7 in WSW 2.9 mph 6 mph 93% 0.03 in 0.00 W/m2
02:04 50.4 °F 48.4 °F 29.7 in WSW 6 mph 8 mph 93% 0.03 in 0.00 W/m2
02:09 50.2 °F 48.2 °F 29.7 in Calm   6 mph 93% 0.03 in 0.00 W/m2
02:14 50.2 °F 48.2 °F 29.7 in Calm   3 mph 93% 0.02 in 0.00 W/m2
02:19 50 °F 48 °F 29.7 in WSW 2.9 mph 6 mph 93% 0.02 in 0.00 W/m2
02:24 50 °F 48 °F 29.7 in WSW 2 mph 7 mph 93% 0.02 in 0.00 W/m2
02:29 50 °F 48 °F 29.7 in WSW 2 mph 4 mph 93% 0.02 in 0.00 W/m2
02:34 50 °F 48 °F 29.7 in WSW 4 mph 7 mph 93% 0.02 in 0.00 W/m2
02:39 50 °F 48 °F 29.7 in Calm   4 mph 93% 0.02 in 0.00 W/m2
02:44 50 °F 48 °F 29.7 in WSW 2 mph 3 mph 93% 0.04 in 0.00 W/m2
02:49 50 °F 48 °F 29.7 in WSW 4 mph 6 mph 93% 0.03 in 0.00 W/m2
02:54 50 °F 48 °F 29.7 in WSW 2 mph 4 mph 93% 0.03 in 0.00 W/m2
02:59 50 °F 48 °F 29.7 in Calm   3 mph 93% 0.03 in 0.00 W/m2
03:04 50 °F 48 °F 29.7 in Calm   3 mph 93% 0.04 in 0.00 W/m2
03:09 50 °F 48 °F 29.7 in Calm   4 mph 93% 0.03 in 0.00 W/m2
03:14 50 °F 48 °F 29.7 in Calm   3 mph 93% 0.03 in 0.00 W/m2
03:19 50.2 °F 48.2 °F 29.7 in Calm   3 mph 93% 0.04 in 0.00 W/m2
03:24 50.2 °F 48.2 °F 29.7 in Calm   1 mph 93% 0.04 in 0.00 W/m2
03:29 50.2 °F 48.2 °F 29.7 in WSW 2 mph 5 mph 93% 0.03 in 0.00 W/m2
03:34 50.4 °F 48.4 °F 29.7 in WSW 4 mph 6 mph 93% 0.04 in 0.00 W/m2
03:39 50.4 °F 48.4 °F 29.7 in WSW 4 mph 6 mph 93% 0.04 in 0.00 W/m2
03:44 50.4 °F 48.4 °F 29.7 in WSW 4 mph 5 mph 93% 0.03 in 0.00 W/m2
03:49 50.4 °F 48.4 °F 29.7 in WSW 0.9 mph 7 mph 93% 0.03 in 0.00 W/m2
03:54 50.4 °F 48.7 °F 29.7 in WSW 2 mph 4 mph 94% 0.03 in 0.00 W/m2
03:59 50.4 °F 48.7 °F 29.7 in Calm   5 mph 94% 0.04 in 0.00 W/m2
04:04 50.4 °F 48.7 °F 29.6 in SW 2.9 mph 6 mph 94% 0.04 in 0.00 W/m2
04:09 50.4 °F 48.7 °F 29.7 in SW 4 mph 6 mph 94% 0.04 in 0.00 W/m2
04:14 50.5 °F 48.9 °F 29.7 in SW 2.9 mph 5 mph 94% 0.04 in 0.00 W/m2
04:19 50.4 °F 48.7 °F 29.6 in SW 4.9 mph 6 mph 94% 0.04 in 0.00 W/m2
04:24 50.4 °F 48.7 °F 29.6 in SW 0.9 mph 5 mph 94% 0.04 in 0.00 W/m2
04:29 50.5 °F 48.9 °F 29.6 in SW 0.9 mph 5 mph 94% 0.04 in 0.00 W/m2
04:34 50.5 °F 48.9 °F 29.6 in SW 4 mph 5 mph 94% 0.04 in 0.00 W/m2
04:39 50.5 °F 48.9 °F 29.7 in Calm   4 mph 94% 0.04 in 0.00 W/m2
04:44 50.5 °F 48.9 °F 29.6 in SW 2.9 mph 3 mph 94% 0.04 in 0.00 W/m2
04:49 50.5 °F 48.9 °F 29.6 in SW 2.9 mph 5 mph 94% 0.04 in 0.00 W/m2
04:54 50.5 °F 48.9 °F 29.6 in SW 0.9 mph 5 mph 94% 0.04 in 0.00 W/m2
04:59 50.5 °F 48.9 °F 29.7 in SW 2.9 mph 8 mph 94% 0.04 in 0.00 W/m2
05:04 50.5 °F 48.9 °F 29.6 in SW 2.9 mph 6 mph 94% 0.04 in 0.00 W/m2
05:09 50.5 °F 48.9 °F 29.6 in SW 4 mph 5 mph 94% 0.04 in 0.00 W/m2
05:14 50.5 °F 48.9 °F 29.6 in SW 6 mph 6 mph 94% 0.04 in 5.00 W/m2
05:19 50.5 °F 48.9 °F 29.6 in SW 7 mph 7 mph 94% 0.04 in 5.00 W/m2
05:24 50.5 °F 48.9 °F 29.6 in Calm   4 mph 94% 0.04 in 9.00 W/m2
05:29 50.5 °F 48.9 °F 29.6 in SW 4 mph 9 mph 94% 0.04 in 11.00 W/m2
05:34 50.4 °F 48.7 °F 29.6 in SW 2.9 mph 8 mph 94% 0.04 in 14.00 W/m2
05:39 50.4 °F 48.7 °F 29.6 in SW 2 mph 9 mph 94% 0.04 in 18.00 W/m2
05:44 50.4 °F 48.7 °F 29.6 in WSW 6 mph 8 mph 94% 0.04 in 23.00 W/m2
05:49 50.4 °F 48.7 °F 29.6 in WSW 4.9 mph 6 mph 94% 0.04 in 28.00 W/m2
05:54 50.5 °F 48.9 °F 29.6 in WSW 4 mph 6 mph 94% 0.04 in 30.00 W/m2
05:59 50.5 °F 48.9 °F 29.6 in WSW 2 mph 5 mph 94% 0.03 in 30.00 W/m2
06:04 50.5 °F 48.9 °F 29.6 in WSW 0.9 mph 5 mph 94% 0.03 in 30.00 W/m2
06:09 50.5 °F 48.9 °F 29.6 in WSW 2.9 mph 6 mph 94% 0.02 in 35.00 W/m2
06:14 50.5 °F 48.9 °F 29.6 in Calm   3 mph 94% 0.04 in 44.00 W/m2
06:19 50.5 °F 48.9 °F 29.6 in WSW 2.9 mph 6 mph 94% 0.04 in 40.00 W/m2
06:24 50.5 °F 48.9 °F 29.6 in WSW 2.9 mph 7 mph 94% 0.04 in 39.00 W/m2
06:29 50.5 °F 48.9 °F 29.6 in SW 9 mph 9 mph 94% 0.03 in 40.00 W/m2
06:34 50.5 °F 48.9 °F 29.6 in SW 2 mph 5 mph 94% 0.04 in 49.00 W/m2
06:39 50.7 °F 49.1 °F 29.6 in SW 6.9 mph 7 mph 94% 0.03 in 30.00 W/m2
06:44 50.5 °F 48.9 °F 29.6 in SW 4 mph 7 mph 94% 0.03 in 28.00 W/m2
06:49 50.5 °F 48.9 °F 29.6 in SW 4 mph 4 mph 94% 0.04 in 28.00 W/m2
06:54 50.5 °F 48.9 °F 29.6 in SW 0.9 mph 5 mph 94% 0.04 in 39.00 W/m2
06:59 50.5 °F 48.9 °F 29.6 in Calm   6 mph 94% 0.04 in 51.00 W/m2
07:04 50.5 °F 48.9 °F 29.6 in WSW 2.9 mph 11 mph 94% 0.04 in 42.00 W/m2
07:09 50.5 °F 48.9 °F 29.6 in SW 2 mph 5 mph 94% 0.04 in 44.00 W/m2
07:14 50.7 °F 49.1 °F 29.6 in SSW 2 mph 12 mph 94% 0.03 in 51.00 W/m2
07:19 50.7 °F 49.1 °F 29.6 in WSW 4.9 mph 9 mph 94% 0.03 in 72.00 W/m2
07:24 50.7 °F 48.7 °F 29.6 in SW 8.1 mph 11 mph 93% 0.03 in 79.00 W/m2
07:29 50.7 °F 48.7 °F 29.6 in SSW 4 mph 7 mph 93% 0.02 in 84.00 W/m2
07:34 50.9 °F 48.9 °F 29.6 in SSW 6 mph 8 mph 93% 0.02 in 83.00 W/m2
07:39 50.9 °F 48.9 °F 29.6 in SW 4.9 mph 7 mph 93% 0.02 in 83.00 W/m2
07:44 50.9 °F 48.9 °F 29.6 in SW 2 mph 9 mph 93% 0.02 in 62.00 W/m2
07:49 50.9 °F 48.9 °F 29.6 in SW 4.9 mph 8 mph 93% 0.01 in 63.00 W/m2
07:54 50.9 °F 48.9 °F 29.6 in SW 6 mph 7 mph 93% 0.01 in 84.00 W/m2
07:59 51.3 °F 49.3 °F 29.6 in SW 4.9 mph 6 mph 93% 0 in 86.00 W/m2
08:04 51.3 °F 49.3 °F 29.6 in SW 6 mph 6 mph 93% 0 in 70.00 W/m2
08:09 51.1 °F 49.1 °F 29.6 in WSW 0.9 mph 11 mph 93% 0 in 77.00 W/m2
08:14 51.3 °F 49.3 °F 29.6 in SW 6 mph 9 mph 93% 0 in 111.00 W/m2
08:19 51.3 °F 49.3 °F 29.6 in WSW 2.9 mph 13 mph 93% 0 in 97.00 W/m2
08:24 51.3 °F 49.3 °F 29.6 in WSW 4 mph 8 mph 93% 0 in 77.00 W/m2
08:29 51.3 °F 49.3 °F 29.6 in SW 2.9 mph 5 mph 93% 0 in 62.00 W/m2
08:34 51.3 °F 49.3 °F 29.6 in WSW 13 mph 13 mph 93% 0 in 69.00 W/m2
08:39 51.3 °F 49.3 °F 29.6 in WSW 4 mph 7 mph 93% 0 in 62.00 W/m2
08:44 51.4 °F 49.5 °F 29.6 in WSW 2.9 mph 7 mph 93% 0 in 67.00 W/m2
08:49 51.4 °F 49.5 °F 29.6 in SW 6.9 mph 12 mph 93% 0 in 67.00 W/m2
08:54 51.4 °F 49.5 °F 29.6 in SW 4.9 mph 8 mph 93% 0 in 62.00 W/m2
08:59 51.4 °F 49.5 °F 29.6 in SW 4.9 mph 9 mph 93% 0 in 76.00 W/m2
09:04 51.6 °F 49.6 °F 29.6 in SW 4.9 mph 14 mph 93% 0 in 84.00 W/m2
09:09 51.6 °F 49.6 °F 29.6 in SW 4.9 mph 8 mph 93% 0 in 111.00 W/m2
09:14 51.8 °F 49.8 °F 29.6 in SW 6.9 mph 10 mph 93% 0 in 134.00 W/m2
09:19 51.8 °F 49.6 °F 29.6 in WSW 8.1 mph 11 mph 92% 0 in 141.00 W/m2
09:24 52.2 °F 49.8 °F 29.6 in WSW 2 mph 8 mph 92% 0 in 162.00 W/m2
09:29 52.2 °F 49.8 °F 29.6 in SW 4.9 mph 10 mph 92% 0 in 148.00 W/m2
09:34 52.5 °F 50.2 °F 29.6 in WSW 2.9 mph 5 mph 92% 0 in 109.00 W/m2
09:39 52.5 °F 50.2 °F 29.6 in SW 6 mph 6 mph 92% 0 in 125.00 W/m2
09:44 52.5 °F 50.2 °F 29.6 in WSW 4 mph 7 mph 92% 0 in 100.00 W/m2
09:49 52.5 °F 50.2 °F 29.6 in SW 4.9 mph 9 mph 92% 0 in 141.00 W/m2
09:54 52.5 °F 50.2 °F 29.6 in WSW 8.1 mph 14 mph 92% 0 in 165.00 W/m2
09:59 52.7 °F 50.2 °F 29.6 in SW 4 mph 8 mph 91% 0 in 155.00 W/m2
10:04 53.1 °F 50.5 °F 29.6 in SW 2 mph 9 mph 91% 0.01 in 144.00 W/m2
10:09 53.1 °F 50.5 °F 29.6 in SW 2 mph 5 mph 91% 0.01 in 109.00 W/m2
10:14 53.1 °F 50.5 °F 29.6 in SW 4.9 mph 9 mph 91% 0.01 in 153.00 W/m2
10:19 53.1 °F 50.5 °F 29.6 in SSW 2 mph 9 mph 91% 0.01 in 156.00 W/m2
10:24 53.2 °F 50.7 °F 29.6 in SSW 2 mph 6 mph 91% 0.01 in 153.00 W/m2
10:29 53.4 °F 50.9 °F 29.6 in SSW 9 mph 9 mph 91% 0.01 in 181.00 W/m2
10:34 53.2 °F 50.4 °F 29.6 in SSW 2 mph 11 mph 90% 0.01 in 181.00 W/m2
10:39 53.4 °F 50.5 °F 29.6 in SW 2 mph 9 mph 90% 0.01 in 153.00 W/m2
10:44 53.4 °F 50.9 °F 29.6 in Calm   6 mph 91% 0.01 in 174.00 W/m2
10:49 53.4 °F 50.9 °F 29.6 in WSW 6 mph 8 mph 91% 0.01 in 100.00 W/m2
10:54 53.4 °F 50.9 °F 29.6 in WSW 0.9 mph 6 mph 91% 0.01 in 65.00 W/m2
10:59 53.4 °F 50.9 °F 29.6 in SW 2.9 mph 9 mph 91% 0.02 in 72.00 W/m2
11:04 53.4 °F 50.9 °F 29.6 in Calm   7 mph 91% 0.01 in 76.00 W/m2
11:09 53.4 °F 50.9 °F 29.6 in Calm   4 mph 91% 0.02 in 97.00 W/m2
11:14 53.4 °F 50.9 °F 29.6 in WSW 2 mph 4 mph 91% 0.02 in 139.00 W/m2
11:19 53.4 °F 51.1 °F 29.6 in SW 9 mph 9 mph 92% 0.02 in 160.00 W/m2
11:24 53.2 °F 50.7 °F 29.6 in WSW 4 mph 9 mph 91% 0.02 in 130.00 W/m2
11:29 53.2 °F 50.9 °F 29.6 in SW 4.9 mph 5 mph 92% 0.02 in 127.00 W/m2
11:34 53.2 °F 50.9 °F 29.6 in SW 4.9 mph 8 mph 92% 0.02 in 174.00 W/m2
11:39 53.1 °F 50.7 °F 29.6 in WSW 8.1 mph 11 mph 92% 0.03 in 230.00 W/m2
11:44 53.1 °F 50.7 °F 29.6 in SW 6 mph 10 mph 92% 0.03 in 229.00 W/m2
11:49 53.4 °F 51.1 °F 29.6 in WSW 6 mph 8 mph 92% 0.03 in 197.00 W/m2
11:54 53.6 °F 51.6 °F 29.6 in Calm   5 mph 93% 0.03 in 220.00 W/m2
11:59 54 °F 52 °F 29.6 in SW 4 mph 4 mph 93% 0.02 in 204.00 W/m2
12:04 54 °F 52 °F 29.6 in West 8.1 mph 8 mph 93% 0.02 in 232.00 W/m2
12:09 53.8 °F 51.4 °F 29.6 in SW 6.9 mph 7 mph 92% 0.02 in 302.00 W/m2
12:14 54.1 °F 51.8 °F 29.6 in WSW 6 mph 6 mph 92% 0.02 in 274.00 W/m2
12:19 54.3 °F 52 °F 29.6 in West 6 mph 9 mph 92% 0.02 in 278.00 W/m2
12:24 54.7 °F 52.3 °F 29.6 in SSW 4 mph 7 mph 92% 0.01 in 306.00 W/m2
12:29 55 °F 52.7 °F 29.6 in SW 4 mph 8 mph 92% 0.01 in 309.00 W/m2
12:34 54.7 °F 52.3 °F 29.6 in WSW 8.9 mph 11 mph 92% 0 in 301.00 W/m2
12:39 54.5 °F 52 °F 29.6 in South 4.9 mph 7 mph 91% 0 in 308.00 W/m2
12:44 55 °F 52.7 °F 29.6 in SSW 4.9 mph 7 mph 92% 0 in 345.00 W/m2
12:49 55 °F 52.5 °F 29.6 in SW 6 mph 7 mph 91% 0 in 327.00 W/m2
12:54 55.2 °F 52.9 °F 29.6 in SW 4 mph 7 mph 92% 0 in 274.00 W/m2
12:59 54.7 °F 52.2 °F 29.6 in SW 4 mph 7 mph 91% 0 in 167.00 W/m2
13:04 54.9 °F 52.3 °F 29.6 in SW 0.9 mph 4 mph 91% 0 in 202.00 W/m2
13:09 54.9 °F 52.5 °F 29.6 in WSW 4 mph 7 mph 92% 0.01 in 265.00 W/m2
13:14 54.9 °F 52.5 °F 29.6 in WSW 0.9 mph 6 mph 92% 0.01 in 267.00 W/m2
13:19 55 °F 52.7 °F 29.6 in West 2.9 mph 5 mph 92% 0.01 in 216.00 W/m2
13:24 55 °F 52.7 °F 29.6 in WSW 4 mph 6 mph 92% 0.01 in 155.00 W/m2
13:29 55 °F 52.7 °F 29.6 in West 8.1 mph 9 mph 92% 0.02 in 76.00 W/m2
13:34 53.6 °F 51.1 °F 29.6 in West 4.9 mph 9 mph 91% 0.02 in 79.00 W/m2
13:39 53.6 °F 51.1 °F 29.6 in West 0.9 mph 4 mph 91% 0.02 in 221.00 W/m2
13:44 53.8 °F 51.4 °F 29.6 in West 4 mph 9 mph 92% 0.02 in 288.00 W/m2
13:49 54.3 °F 52 °F 29.6 in West 0.9 mph 3 mph 92% 0.02 in 445.00 W/m2
13:54 54.9 °F 52.5 °F 29.6 in Calm   1 mph 92% 0.02 in 362.00 W/m2
13:59 55 °F 52.7 °F 29.6 in Calm     92% 0.02 in 216.00 W/m2
14:04 55 °F 52.7 °F 29.6 in West 3 mph 3 mph 92% 0.02 in 134.00 W/m2
14:09 55.2 °F 52.9 °F 29.6 in West 2 mph 3 mph 92% 0.01 in 209.00 W/m2
14:14 55.4 °F 53.1 °F 29.6 in West 4.9 mph 5 mph 92% 0.01 in 183.00 W/m2
14:19 55.4 °F 53.1 °F 29.6 in West 9 mph 9 mph 92% 0.01 in 279.00 W/m2
14:24 55.9 °F 53.6 °F 29.6 in WSW 4 mph 9 mph 92% 0.01 in 436.00 W/m2
14:29 56.3 °F 53.8 °F 29.6 in WSW 4 mph 8 mph 91% 0 in 482.00 W/m2
14:34 56.8 °F 54 °F 29.6 in West 4 mph 10 mph 90% 0 in 359.00 W/m2
14:39 56.8 °F 53.2 °F 29.6 in West 2 mph 8 mph 88% 0 in 214.00 W/m2
14:44 56.8 °F 53.2 °F 29.6 in WSW 6.9 mph 12 mph 88% 0 in 202.00 W/m2
14:49 56.8 °F 53.1 °F 29.6 in WSW 6 mph 10 mph 87% 0 in 206.00 W/m2
14:54 56.7 °F 52.9 °F 29.6 in WSW 6 mph 13 mph 87% 0 in 162.00 W/m2
14:59 56.3 °F 52.2 °F 29.6 in WSW 4.9 mph 11 mph 86% 0 in 308.00 W/m2
15:04 56.3 °F 52.5 °F 29.6 in WSW 6 mph 8 mph 87% 0 in 304.00 W/m2
15:09 56.3 °F 52.5 °F 29.6 in SSW 4.9 mph 11 mph 87% 0 in 367.00 W/m2
15:14 56.3 °F 52.5 °F 29.6 in Calm   8 mph 87% 0 in 302.00 W/m2
15:19 56.3 °F 52.9 °F 29.6 in SW 0.9 mph 8 mph 88% 0 in 185.00 W/m2
15:24 56.1 °F 52.7 °F 29.6 in WSW 2.9 mph 8 mph 88% 0 in 148.00 W/m2
15:29 55.8 °F 52.3 °F 29.6 in SW 4 mph 11 mph 88% 0 in 251.00 W/m2
15:34 55.9 °F 52.5 °F 29.6 in SW 8.1 mph 9 mph 88% 0 in 281.00 W/m2
15:39 55.9 °F 52.5 °F 29.6 in WSW 6.9 mph 8 mph 88% 0 in 281.00 W/m2
15:44 56.1 °F 52.7 °F 29.6 in WSW 4.9 mph 8 mph 88% 0 in 306.00 W/m2
15:49 56.1 °F 52.7 °F 29.6 in SW 2 mph 10 mph 88% 0 in 306.00 W/m2
15:54 56.3 °F 52.9 °F 29.6 in WSW 6 mph 9 mph 88% 0 in 320.00 W/m2
15:59 56.5 °F 52.7 °F 29.6 in SW 4 mph 7 mph 87% 0 in 183.00 W/m2
16:04 56.5 °F 52.7 °F 29.6 in SSW 6 mph 10 mph 87% 0 in 35.00 W/m2
16:09 56.3 °F 52.5 °F 29.6 in WSW 4.9 mph 10 mph 87% 0 in 98.00 W/m2
16:14 55.8 °F 52 °F 29.6 in West 6 mph 13 mph 87% 0 in 234.00 W/m2
16:19 55.8 °F 52 °F 29.6 in SW 8.9 mph 11 mph 87% 0 in 221.00 W/m2
16:24 55.8 °F 52 °F 29.6 in West 8.1 mph 10 mph 87% 0 in 165.00 W/m2
16:29 55.8 °F 52 °F 29.6 in WSW 12 mph 12 mph 87% 0 in 86.00 W/m2
16:34 55.4 °F 51.6 °F 29.6 in West 15 mph 21 mph 87% 0 in 137.00 W/m2
16:39 54.5 °F 50.7 °F 29.6 in West 8.9 mph 12 mph 87% 0 in 118.00 W/m2
16:44 54.1 °F 50.7 °F 29.6 in WNW 4.9 mph 10 mph 88% 0 in 137.00 W/m2
16:49 53.4 °F 50.2 °F 29.6 in West 6.9 mph 16 mph 89% 0.01 in 139.00 W/m2
16:54 53.4 °F 50.5 °F 29.7 in WNW 6 mph 12 mph 90% 0.01 in 146.00 W/m2
16:59 53.4 °F 50.9 °F 29.7 in West 4 mph 8 mph 91% 0.01 in 139.00 W/m2
17:04 53.6 °F 51.1 °F 29.7 in WNW 4.9 mph 11 mph 91% 0.01 in 165.00 W/m2
17:09 53.6 °F 51.1 °F 29.7 in WNW 8.1 mph 10 mph 91% 0.01 in 176.00 W/m2
17:14 53.6 °F 51.3 °F 29.7 in West 4.9 mph 10 mph 92% 0.01 in 163.00 W/m2
17:19 54 °F 51.6 °F 29.7 in West 4 mph 7 mph 92% 0.01 in 113.00 W/m2
17:24 54.1 °F 51.8 °F 29.7 in West 0.9 mph 9 mph 92% 0.01 in 171.00 W/m2
17:29 54.3 °F 52 °F 29.7 in West 6 mph 10 mph 92% 0.01 in 158.00 W/m2
17:34 54.3 °F 52 °F 29.7 in NW 2 mph 10 mph 92% 0.01 in 167.00 W/m2
17:39 54.5 °F 52.2 °F 29.7 in NW 4.9 mph 11 mph 92% 0.01 in 141.00 W/m2
17:44 54.7 °F 52.3 °F 29.7 in WNW 10.1 mph 10 mph 92% 0.01 in 188.00 W/m2
17:49 54.7 °F 52.3 °F 29.7 in West 8.1 mph 10 mph 92% 0 in 162.00 W/m2
17:54 54.9 °F 52.3 °F 29.7 in West 4 mph 11 mph 91% 0 in 149.00 W/m2
17:59 54.7 °F 52.2 °F 29.7 in West 6.9 mph 10 mph 91% 0 in 165.00 W/m2
18:04 54.9 °F 52 °F 29.7 in West 4.9 mph 9 mph 90% 0 in 181.00 W/m2
18:08 55 °F 52.2 °F 29.7 in West 4 mph 13 mph 90% 0 in 185.00 W/m2
18:12 55 °F 51.8 °F 29.7 in WNW 8.9 mph 12 mph 89% 0 in 181.00 W/m2
18:15 55 °F 51.8 °F 29.7 in WSW 6.9 mph 10 mph 89% 0 in 153.00 W/m2
18:18 55 °F 51.8 °F 29.7 in West 6.9 mph 13 mph 89% 0 in 121.00 W/m2
18:23 55 °F 51.8 °F 29.7 in WNW 6 mph 9 mph 89% 0 in 105.00 W/m2
18:28 55 °F 51.8 °F 29.7 in NW 11 mph 11 mph 89% 0 in 121.00 W/m2
18:33 54.9 °F 51.6 °F 29.7 in West 6 mph 10 mph 89% 0 in 163.00 W/m2
18:42 55 °F 51.6 °F 29.7 in West 4.9 mph 11 mph 88% 0 in 153.00 W/m2
18:49 55.2 °F 51.8 °F 29.7 in West 12.1 mph 12 mph 88% 0 in 113.00 W/m2
18:54 55.2 °F 51.8 °F 29.7 in WSW 13 mph 13 mph 88% 0 in 102.00 W/m2
18:59 55 °F 51.3 °F 29.7 in West 6 mph 9 mph 87% 0 in 88.00 W/m2
19:04 55.2 °F 51.4 °F 29.7 in West 2 mph 8 mph 87% 0 in 102.00 W/m2
19:09 55.4 °F 51.6 °F 29.7 in WSW 4 mph 7 mph 87% 0 in 120.00 W/m2
19:14 55.4 °F 51.6 °F 29.7 in West 6 mph 6 mph 87% 0 in 160.00 W/m2
19:19 55.8 °F 52 °F 29.7 in West 2.9 mph 6 mph 87% 0 in 127.00 W/m2
19:24 55.9 °F 51.8 °F 29.7 in WSW 6 mph 9 mph 86% 0 in 107.00 W/m2
19:29 55.8 °F 51.6 °F 29.7 in WNW 4.9 mph 10 mph 86% 0 in 72.00 W/m2
19:34 55.8 °F 51.6 °F 29.7 in WSW 4.9 mph 8 mph 86% 0 in 40.00 W/m2
19:39 55.4 °F 51.3 °F 29.7 in West 4.9 mph 6 mph 86% 0 in 26.00 W/m2
19:44 55 °F 50.9 °F 29.7 in West 6 mph 13 mph 86% 0 in 25.00 W/m2
19:49 54.9 °F 50.7 °F 29.7 in West 2 mph 5 mph 86% 0 in 23.00 W/m2
19:54 54.5 °F 50.4 °F 29.7 in West 8.9 mph 13 mph 86% 0 in 25.00 W/m2
19:54 54.5 °F 50.4 °F 29.7 in West 6 mph 13 mph 86% 0 in 25.00 W/m2
19:56 54.5 °F 50.4 °F 29.7 in WNW 4.9 mph 13 mph 86% 0 in 26.00 W/m2
19:58 54.5 °F 50.4 °F 29.7 in West 14 mph 14 mph 86% 0 in 28.00 W/m2
19:59 54.3 °F 50.2 °F 29.7 in West 4.9 mph 14 mph 86% 0 in 28.00 W/m2
19:59 54.5 °F 50.4 °F 29.7 in WNW 6 mph 14 mph 86% 0 in 30.00 W/m2
20:02 54.3 °F 50.2 °F 29.7 in WNW 6.9 mph 7 mph 86% 0 in 32.00 W/m2
20:10 54.1 °F 50 °F 29.7 in WNW 8.9 mph 9 mph 86% 0 in 33.00 W/m2
20:11 54.1 °F 50 °F 29.7 in West 11 mph 11 mph 86% 0 in 33.00 W/m2
20:15 54 °F 49.8 °F 29.7 in West 2 mph 7 mph 86% 0 in 33.00 W/m2
20:21 53.8 °F 49.6 °F 29.7 in WNW 2.9 mph 8 mph 86% 0 in 30.00 W/m2
20:27 53.6 °F 49.5 °F 29.7 in WSW 2.9 mph 7 mph 86% 0 in 21.00 W/m2
20:33 53.4 °F 49.3 °F 29.7 in West 9 mph 9 mph 86% 0 in 18.00 W/m2
20:40 53.4 °F 49.3 °F 29.7 in West 6.9 mph 9 mph 86% 0 in 16.00 W/m2
20:45 53.4 °F 49.6 °F 29.7 in WNW 8.1 mph 15 mph 87% 0 in 16.00 W/m2
20:52 53.2 °F 49.1 °F 29.7 in WNW 2 mph 9 mph 86% 0 in 14.00 W/m2
20:54 53.2 °F 49.5 °F 29.7 in NW 6 mph 10 mph 87% 0 in 12.00 W/m2
21:01 53.1 °F 49.3 °F 29.7 in West 2.9 mph 3 mph 87% 0 in 11.00 W/m2
21:07 52.9 °F 49.1 °F 29.7 in WNW 2.9 mph 8 mph 87% 0 in 7.00 W/m2
21:16 52.7 °F 48.9 °F 29.7 in West 2.9 mph 7 mph 87% 0 in 0.00 W/m2
21:24 52.7 °F 48.9 °F 29.7 in West 4 mph 7 mph 87% 0 in 0.00 W/m2
21:26 52.7 °F 48.9 °F 29.7 in WNW 4.9 mph 7 mph 87% 0 in 0.00 W/m2
21:26 52.7 °F 48.9 °F 29.7 in West 4 mph 7 mph 87% 0 in 0.00 W/m2
21:27 52.5 °F 48.7 °F 29.7 in West 4.9 mph 7 mph 87% 0 in 0.00 W/m2
21:28 52.5 °F 48.7 °F 29.7 in West 4 mph 6 mph 87% 0 in 0.00 W/m2
21:30 52.5 °F 48.7 °F 29.7 in West 0.9 mph 4 mph 87% 0 in 0.00 W/m2
21:31 52.5 °F 48.7 °F 29.7 in Calm   2 mph 87% 0 in 0.00 W/m2
21:33 52.5 °F 48.7 °F 29.7 in West 2 mph 4 mph 87% 0 in 0.00 W/m2
21:39 52.5 °F 48.7 °F 29.7 in West 2 mph 4 mph 87% 0 in 0.00 W/m2
21:40 52.5 °F 48.7 °F 29.7 in West 2.9 mph 4 mph 87% 0 in 0.00 W/m2
21:41 52.3 °F 48.6 °F 29.7 in West 2 mph 3 mph 87% 0 in 0.00 W/m2
21:43 52.3 °F 48.6 °F 29.7 in West 2 mph 3 mph 87% 0 in 0.00 W/m2
21:46 52.3 °F 48.6 °F 29.7 in West 0.9 mph 5 mph 87% 0 in 0.00 W/m2
21:46 52.3 °F 48.6 °F 29.7 in West 2.9 mph 6 mph 87% 0 in 0.00 W/m2